Terminal Aerodrome Forecast
Issued by NWS Rapid City, SD

Home | Current Version | Previous Version | Graphics & Text | Print | Product List | Glossary On
Versions: 1 2 3 4 5 6 7 8 9 10 11 12 13 14 15 16
013
FTUS43 KUNR 220823 AAA
TAFRAP
TAF AMD
KRAP 220823Z 2208/2306 30007KT P6SM SCT080
     FM220900 32018G28KT P6SM -SHRA OVC040
     FM221700 33026G36KT P6SM -SHRA OVC040
     FM230200 33013KT P6SM BKN090=

USA.gov is the U.S. government's official web portal to all federal, state and local government web resources and services.